First Ferry Vi — VRS4293 — position and weather

sailwx.info

Track history (hours):
 
Tides and Currents Weather Stations Pressure Air Temp Water Temp Dewpoint Dewpoint Depression Visibility Wind Speed Wind Dir Waves Ship Positions

First Ferry Vi

Last reported at 2014-Jul-23 03:20 UTC. Time now 2014-Jul-23 05:19 UTC.
Position N 22°17' E 114°10'.

Length 36 m; draft 1.8 m.

Type: Ship. MMSI: 477995028.

Date/timePositionNaut miles runAvg speedWind from/ knotsBaromVisibWave heightAir tempDewpointWater temp
2014-Jul-23 03:20N 22°17' E 114°10'0 0.2
2014-Jul-23 01:29N 22°17' E 114°10'2 1.7
2014-Jul-23 00:32N 22°19' E 114°09'1 1.0
2014-Jul-22 23:08N 22°18' E 114°08'1 0.2
2014-Jul-22 15:33N 22°17' E 114°10'1 1.0
2014-Jul-22 14:10N 22°18' E 114°08'1 1.9
2014-Jul-22 13:25N 22°17' E 114°10'0 0.1
2014-Jul-22 12:33N 22°17' E 114°10'1 1.1
2014-Jul-22 11:24N 22°18' E 114°08'0 0.3
2014-Jul-22 10:09N 22°18' E 114°09'1 0.3
2014-Jul-22 05:29N 22°17' E 114°10'0 0.2
2014-Jul-22 03:19N 22°17' E 114°10'1 0.6
2014-Jul-22 01:33N 22°18' E 114°09'0 0.2
2014-Jul-22 00:29N 22°19' E 114°09'1 1.0
2014-Jul-21 23:08N 22°18' E 114°08'1 0.2
2014-Jul-21 15:33N 22°17' E 114°10'1 0.9
2014-Jul-21 14:09N 22°18' E 114°08'1 0.7
2014-Jul-21 12:30N 22°17' E 114°10'1 1.2
2014-Jul-21 11:23N 22°18' E 114°08'0 0.0
2014-Jul-21 10:10N 22°18' E 114°08'2 0.5
2014-Jul-21 05:32N 22°17' E 114°11'1 0.5
2014-Jul-21 03:18N 22°17' E 114°10'1 0.3
2014-Jul-21 01:33N 22°17' E 114°10'2 1.5
2014-Jul-21 00:31N 22°19' E 114°09'1 0.9
2014-Jul-20 23:08N 22°18' E 114°08'1 0.2
2014-Jul-20 15:17N 22°17' E 114°10'0 0.0
2014-Jul-20 13:10N 22°17' E 114°10'0 0.0
2014-Jul-20 11:08N 22°17' E 114°10'0 0.0
2014-Jul-20 09:11N 22°17' E 114°10'0 0.0
2014-Jul-20 07:08N 22°17' E 114°10'0 0.0
2014-Jul-20 05:09N 22°17' E 114°10'1 1.5
2014-Jul-20 04:09N 22°18' E 114°08'0 0.2
2014-Jul-20 02:29N 22°18' E 114°08'1 0.4
2014-Jul-19 23:32N 22°17' E 114°10'0 0.0
2014-Jul-19 16:33N 22°17' E 114°10'0 0.0
2014-Jul-19 14:24N 22°17' E 114°10'1 1.6
2014-Jul-19 13:30N 22°18' E 114°08'0 0.1
2014-Jul-19 11:10N 22°18' E 114°08'1 1.0
2014-Jul-19 10:33N 22°18' E 114°09'0 0.2
2014-Jul-19 09:18N 22°18' E 114°08'0 0.0
2014-Jul-19 07:18N 22°18' E 114°08'0 0.2
2014-Jul-19 06:33N 22°18' E 114°09'0 0.2
2014-Jul-19 05:19N 22°18' E 114°08'1 0.3
2014-Jul-19 01:11N 22°19' E 114°09'1 0.7
2014-Jul-18 23:27N 22°17' E 114°10'0 0.0
2014-Jul-18 14:27N 22°17' E 114°10'2 1.6
2014-Jul-18 13:29N 22°18' E 114°08'0 0.1
2014-Jul-18 11:09N 22°18' E 114°08'0 0.1
2014-Jul-18 09:18N 22°18' E 114°08'0 0.4
2014-Jul-18 08:33N 22°18' E 114°09'1 0.4
2014-Jul-18 07:18N 22°18' E 114°08'3 0.4
2014-Jul-18 01:12N 22°18' E 114°11'1 0.7
2014-Jul-17 23:28N 22°17' E 114°10'0 0.0
2014-Jul-17 16:33N 22°18' E 114°09'0 0.1
2014-Jul-17 14:18N 22°17' E 114°10'1 1.7
2014-Jul-17 13:28N 22°18' E 114°08'0 0.1
2014-Jul-17 11:11N 22°18' E 114°08'1 1.1
2014-Jul-17 10:33N 22°18' E 114°09'1 0.4
2014-Jul-17 09:18N 22°18' E 114°08'0 0.0
2014-Jul-17 07:18N 22°18' E 114°08'1 0.2
2014-Jul-17 01:12N 22°19' E 114°09'1 0.9
2014-Jul-16 23:29N 22°17' E 114°10'0 0.0
2014-Jul-16 14:26N 22°17' E 114°10'2 1.6
2014-Jul-16 13:30N 22°18' E 114°08'0 0.1
2014-Jul-16 11:10N 22°18' E 114°08'0 0.0
2014-Jul-16 09:18N 22°18' E 114°08'0 0.4
2014-Jul-16 08:34N 22°18' E 114°09'0 0.3
2014-Jul-16 07:19N 22°18' E 114°08'2 0.4
2014-Jul-16 01:09N 22°18' E 114°11'1 0.6
2014-Jul-15 23:29N 22°17' E 114°10'0 0.0
2014-Jul-15 16:33N 22°17' E 114°10'0 0.0
2014-Jul-15 14:28N 22°17' E 114°10'2 1.7
2014-Jul-15 13:30N 22°18' E 114°08'0 0.1
2014-Jul-15 11:09N 22°18' E 114°08'0 0.1
2014-Jul-15 10:34N 22°18' E 114°08'0 0.1
2014-Jul-15 09:18N 22°18' E 114°08'0 0.4
2014-Jul-15 08:33N 22°18' E 114°09'0 0.2
2014-Jul-15 07:18N 22°18' E 114°08'1 0.2
2014-Jul-15 01:10N 22°18' E 114°09'1 0.7
2014-Jul-14 23:29N 22°17' E 114°10'0 0.0
2014-Jul-14 16:33N 22°17' E 114°10'0 0.0
2014-Jul-14 14:23N 22°17' E 114°10'1 1.3
2014-Jul-14 13:29N 22°18' E 114°08'0 0.1
2014-Jul-14 11:11N 22°18' E 114°08'1 1.1
2014-Jul-14 10:33N 22°18' E 114°09'0 0.3
2014-Jul-14 09:18N 22°18' E 114°08'0 0.4
2014-Jul-14 08:33N 22°18' E 114°09'0 0.2
2014-Jul-14 07:18N 22°18' E 114°08'2 0.6
2014-Jul-14 04:28N 22°17' E 114°10'0 0.2
2014-Jul-14 02:23N 22°17' E 114°10'0 0.0
2014-Jul-14 01:06N 22°17' E 114°10'0 0.0
2014-Jul-13 23:29N 22°17' E 114°10'0 0.0
2014-Jul-13 16:33N 22°17' E 114°10'1 0.6
2014-Jul-13 14:28N 22°18' E 114°08'0 0.1
2014-Jul-13 12:28N 22°18' E 114°08'0 0.1
2014-Jul-13 10:29N 22°18' E 114°08'0 0.1
2014-Jul-13 08:28N 22°18' E 114°08'0 0.1
2014-Jul-13 06:29N 22°18' E 114°09'0 0.1
2014-Jul-13 04:12N 22°18' E 114°08'  
Track history (hours):
 
Tides and Currents Weather Stations Pressure Air Temp Water Temp Dewpoint Dewpoint Depression Visibility Wind Speed Wind Dir Waves Ship Positions

First Ferry Vi

Last reported at 2014-Jul-23 03:20 UTC. Time now 2014-Jul-23 05:19 UTC.
Position N 22°17' E 114°10'.

Length 36 m; draft 1.8 m.

Type: Ship. MMSI: 477995028.

Date/timePositionNaut miles runAvg speedWind from/ knotsBaromVisibWave heightAir tempDewpointWater temp
2014-Jul-23 03:20N 22°17' E 114°10'0 0.2
2014-Jul-23 01:29N 22°17' E 114°10'2 1.7
2014-Jul-23 00:32N 22°19' E 114°09'1 1.0
2014-Jul-22 23:08N 22°18' E 114°08'1 0.2
2014-Jul-22 15:33N 22°17' E 114°10'1 1.0
2014-Jul-22 14:10N 22°18' E 114°08'1 1.9
2014-Jul-22 13:25N 22°17' E 114°10'0 0.1
2014-Jul-22 12:33N 22°17' E 114°10'1 1.1
2014-Jul-22 11:24N 22°18' E 114°08'0 0.3
2014-Jul-22 10:09N 22°18' E 114°09'1 0.3
2014-Jul-22 05:29N 22°17' E 114°10'0 0.2
2014-Jul-22 03:19N 22°17' E 114°10'1 0.6
2014-Jul-22 01:33N 22°18' E 114°09'0 0.2
2014-Jul-22 00:29N 22°19' E 114°09'1 1.0
2014-Jul-21 23:08N 22°18' E 114°08'1 0.2
2014-Jul-21 15:33N 22°17' E 114°10'1 0.9
2014-Jul-21 14:09N 22°18' E 114°08'1 0.7
2014-Jul-21 12:30N 22°17' E 114°10'1 1.2
2014-Jul-21 11:23N 22°18' E 114°08'0 0.0
2014-Jul-21 10:10N 22°18' E 114°08'2 0.5
2014-Jul-21 05:32N 22°17' E 114°11'1 0.5
2014-Jul-21 03:18N 22°17' E 114°10'1 0.3
2014-Jul-21 01:33N 22°17' E 114°10'2 1.5
2014-Jul-21 00:31N 22°19' E 114°09'1 0.9
2014-Jul-20 23:08N 22°18' E 114°08'1 0.2
2014-Jul-20 15:17N 22°17' E 114°10'0 0.0
2014-Jul-20 13:10N 22°17' E 114°10'0 0.0
2014-Jul-20 11:08N 22°17' E 114°10'0 0.0
2014-Jul-20 09:11N 22°17' E 114°10'0 0.0
2014-Jul-20 07:08N 22°17' E 114°10'0 0.0
2014-Jul-20 05:09N 22°17' E 114°10'1 1.5
2014-Jul-20 04:09N 22°18' E 114°08'0 0.2
2014-Jul-20 02:29N 22°18' E 114°08'1 0.4
2014-Jul-19 23:32N 22°17' E 114°10'0 0.0
2014-Jul-19 16:33N 22°17' E 114°10'0 0.0
2014-Jul-19 14:24N 22°17' E 114°10'1 1.6
2014-Jul-19 13:30N 22°18' E 114°08'0 0.1
2014-Jul-19 11:10N 22°18' E 114°08'1 1.0
2014-Jul-19 10:33N 22°18' E 114°09'0 0.2
2014-Jul-19 09:18N 22°18' E 114°08'0 0.0
2014-Jul-19 07:18N 22°18' E 114°08'0 0.2
2014-Jul-19 06:33N 22°18' E 114°09'0 0.2
2014-Jul-19 05:19N 22°18' E 114°08'1 0.3
2014-Jul-19 01:11N 22°19' E 114°09'1 0.7
2014-Jul-18 23:27N 22°17' E 114°10'0 0.0
2014-Jul-18 14:27N 22°17' E 114°10'2 1.6
2014-Jul-18 13:29N 22°18' E 114°08'0 0.1
2014-Jul-18 11:09N 22°18' E 114°08'0 0.1
2014-Jul-18 09:18N 22°18' E 114°08'0 0.4
2014-Jul-18 08:33N 22°18' E 114°09'1 0.4
2014-Jul-18 07:18N 22°18' E 114°08'3 0.4
2014-Jul-18 01:12N 22°18' E 114°11'1 0.7
2014-Jul-17 23:28N 22°17' E 114°10'0 0.0
2014-Jul-17 16:33N 22°18' E 114°09'0 0.1
2014-Jul-17 14:18N 22°17' E 114°10'1 1.7
2014-Jul-17 13:28N 22°18' E 114°08'0 0.1
2014-Jul-17 11:11N 22°18' E 114°08'1 1.1
2014-Jul-17 10:33N 22°18' E 114°09'1 0.4
2014-Jul-17 09:18N 22°18' E 114°08'0 0.0
2014-Jul-17 07:18N 22°18' E 114°08'1 0.2
2014-Jul-17 01:12N 22°19' E 114°09'1 0.9
2014-Jul-16 23:29N 22°17' E 114°10'0 0.0
2014-Jul-16 14:26N 22°17' E 114°10'2 1.6
2014-Jul-16 13:30N 22°18' E 114°08'0 0.1
2014-Jul-16 11:10N 22°18' E 114°08'0 0.0
2014-Jul-16 09:18N 22°18' E 114°08'0 0.4
2014-Jul-16 08:34N 22°18' E 114°09'0 0.3
2014-Jul-16 07:19N 22°18' E 114°08'2 0.4
2014-Jul-16 01:09N 22°18' E 114°11'1 0.6
2014-Jul-15 23:29N 22°17' E 114°10'0 0.0
2014-Jul-15 16:33N 22°17' E 114°10'0 0.0
2014-Jul-15 14:28N 22°17' E 114°10'2 1.7
2014-Jul-15 13:30N 22°18' E 114°08'0 0.1
2014-Jul-15 11:09N 22°18' E 114°08'0 0.1
2014-Jul-15 10:34N 22°18' E 114°08'0 0.1
2014-Jul-15 09:18N 22°18' E 114°08'0 0.4
2014-Jul-15 08:33N 22°18' E 114°09'0 0.2
2014-Jul-15 07:18N 22°18' E 114°08'1 0.2
2014-Jul-15 01:10N 22°18' E 114°09'1 0.7
2014-Jul-14 23:29N 22°17' E 114°10'0 0.0
2014-Jul-14 16:33N 22°17' E 114°10'0 0.0
2014-Jul-14 14:23N 22°17' E 114°10'1 1.3
2014-Jul-14 13:29N 22°18' E 114°08'0 0.1
2014-Jul-14 11:11N 22°18' E 114°08'1 1.1
2014-Jul-14 10:33N 22°18' E 114°09'0 0.3
2014-Jul-14 09:18N 22°18' E 114°08'0 0.4
2014-Jul-14 08:33N 22°18' E 114°09'0 0.2
2014-Jul-14 07:18N 22°18' E 114°08'2 0.6
2014-Jul-14 04:28N 22°17' E 114°10'0 0.2
2014-Jul-14 02:23N 22°17' E 114°10'0 0.0
2014-Jul-14 01:06N 22°17' E 114°10'0 0.0
2014-Jul-13 23:29N 22°17' E 114°10'0 0.0
2014-Jul-13 16:33N 22°17' E 114°10'1 0.6
2014-Jul-13 14:28N 22°18' E 114°08'0 0.1
2014-Jul-13 12:28N 22°18' E 114°08'0 0.1
2014-Jul-13 10:29N 22°18' E 114°08'0 0.1
2014-Jul-13 08:28N 22°18' E 114°08'0 0.1
2014-Jul-13 06:29N 22°18' E 114°09'0 0.1
2014-Jul-13 04:12N 22°18' E 114°08'  

Dump ship's entire track history